Time;durP1;ratioP1;P1;durP2;ratioP2;P2;SDS_P1;SDS_P2;PMS_P1;PMS_P2;Temp;Humidity;BMP_temperature;BMP_pressure;BME280_temperature;BME280_humidity;BME280_pressure;Samples;Min_cycle;Max_cycle;Signal;HPM_P1;HPM_P2
2022/07/09 00:01:03;;;;;;;1.00;0.30;;;21.20;64.30;;;;;;5111455;28;20040;-70
2022/07/09 00:03:29;;;;;;;1.75;0.43;;;21.20;64.30;;;;;;5111133;28;20043;-71
2022/07/09 00:05:57;;;;;;;2.03;0.68;;;21.20;64.30;;;;;;5111828;28;20123;-71
2022/07/09 00:08:22;;;;;;;1.67;0.50;;;21.20;64.40;;;;;;5111451;28;20028;-71
2022/07/09 00:10:48;;;;;;;2.20;0.40;;;21.20;64.40;;;;;;5111716;28;20076;-70
2022/07/09 00:13:13;;;;;;;0.70;0.30;;;21.20;64.40;;;;;;5111418;28;20475;-71
2022/07/09 00:15:39;;;;;;;2.40;0.50;;;21.20;64.40;;;;;;5112762;28;20067;-71
2022/07/09 00:18:05;;;;;;;3.13;0.88;;;21.20;64.40;;;;;;5111535;28;20053;-71
2022/07/09 00:20:30;;;;;;;1.70;0.30;;;21.20;64.40;;;;;;5112074;28;20368;-71
2022/07/09 00:22:56;;;;;;;2.67;0.60;;;21.20;64.40;;;;;;5110678;28;20043;-71
2022/07/09 00:25:21;;;;;;;1.83;0.50;;;21.20;64.40;;;;;;5111304;28;20039;-71
2022/07/09 00:27:47;;;;;;;1.88;0.50;;;21.20;64.40;;;;;;5111199;28;20035;-70
2022/07/09 00:30:13;;;;;;;1.77;0.40;;;21.20;64.50;;;;;;5111281;28;20051;-71
2022/07/09 00:32:39;;;;;;;2.35;0.40;;;21.10;64.40;;;;;;5096248;28;20070;-71
2022/07/09 00:35:05;;;;;;;0.98;0.30;;;21.20;64.40;;;;;;5090639;28;20046;-71
2022/07/09 00:37:31;;;;;;;2.40;0.47;;;21.10;64.40;;;;;;5090758;28;20597;-71
2022/07/09 00:39:56;;;;;;;1.60;0.50;;;21.10;64.40;;;;;;5090169;28;20130;-70
2022/07/09 00:42:22;;;;;;;2.42;0.43;;;21.20;64.50;;;;;;5089932;28;20051;-70
2022/07/09 00:44:48;;;;;;;1.88;0.40;;;21.20;64.50;;;;;;5090629;28;20109;-71
2022/07/09 00:47:13;;;;;;;3.03;0.40;;;21.10;64.50;;;;;;5090719;28;20047;-71
2022/07/09 00:49:41;;;;;;;3.63;0.68;;;21.10;64.50;;;;;;5090846;28;20040;-71
2022/07/09 00:52:11;;;;;;;0.70;0.30;;;21.10;64.50;;;;;;5090661;28;20079;-71
2022/07/09 00:54:37;;;;;;;1.70;0.30;;;21.10;64.60;;;;;;5090615;28;20051;-71
2022/07/09 00:57:06;;;;;;;2.05;0.40;;;21.10;64.60;;;;;;5090874;28;20040;-71
2022/07/09 00:59:33;;;;;;;2.45;0.50;;;21.10;64.60;;;;;;5090453;28;20114;-71
2022/07/09 01:02:01;;;;;;;1.83;0.50;;;21.10;64.60;;;;;;5089988;28;20090;-70
2022/07/09 01:04:27;;;;;;;1.52;0.47;;;21.10;64.60;;;;;;5090202;28;20046;-70
2022/07/09 01:06:52;;;;;;;0.85;0.45;;;21.10;64.60;;;;;;5091959;28;20111;-71
2022/07/09 01:09:18;;;;;;;2.47;0.63;;;21.10;64.70;;;;;;5090367;28;20540;-71
2022/07/09 01:11:44;;;;;;;1.10;0.38;;;21.10;64.60;;;;;;5090783;28;20036;-71
2022/07/09 01:14:13;;;;;;;1.63;0.75;;;21.10;64.70;;;;;;5090653;28;20055;-71
2022/07/09 01:16:38;;;;;;;1.95;0.57;;;21.10;64.80;;;;;;5090712;28;20051;-71
2022/07/09 01:19:05;;;;;;;1.85;0.55;;;21.10;64.70;;;;;;5090340;28;20430;-71
2022/07/09 01:21:31;;;;;;;1.20;0.47;;;21.00;64.70;;;;;;5091079;28;20499;-71
2022/07/09 01:23:56;;;;;;;1.58;0.40;;;21.10;64.80;;;;;;5091118;28;20040;-71
2022/07/09 01:26:23;;;;;;;3.38;0.52;;;21.10;64.80;;;;;;5090553;28;20078;-73
2022/07/09 01:28:49;;;;;;;2.78;0.55;;;21.10;64.80;;;;;;5090290;28;20467;-70
2022/07/09 01:31:15;;;;;;;1.77;0.40;;;21.10;64.80;;;;;;5093178;28;20088;-71
2022/07/09 01:33:41;;;;;;;1.50;0.57;;;21.10;65.60;;;;;;5110775;28;20040;-71
2022/07/09 01:36:07;;;;;;;2.03;0.40;;;21.10;64.90;;;;;;5110958;28;20036;-71
2022/07/09 01:38:33;;;;;;;1.02;0.63;;;21.00;64.80;;;;;;5112349;28;20042;-71
2022/07/09 01:40:59;;;;;;;1.58;0.40;;;21.00;64.80;;;;;;5111407;28;20048;-71
2022/07/09 01:43:25;;;;;;;1.55;0.40;;;21.00;64.80;;;;;;5109706;28;20044;-71
2022/07/09 01:45:50;;;;;;;1.10;0.47;;;21.00;64.80;;;;;;5110419;28;20039;-71
2022/07/09 01:48:16;;;;;;;3.50;0.65;;;21.00;64.80;;;;;;5113764;28;20036;-70
2022/07/09 01:50:45;;;;;;;2.25;0.68;;;21.00;64.80;;;;;;5114374;28;20054;-71
2022/07/09 01:53:10;;;;;;;1.13;0.50;;;21.00;64.80;;;;;;5114190;28;20043;-71
2022/07/09 01:55:36;;;;;;;2.53;0.40;;;21.00;64.90;;;;;;5114230;28;20127;-71
2022/07/09 01:58:02;;;;;;;1.95;0.50;;;21.00;64.90;;;;;;5114317;28;20040;-70
2022/07/09 02:00:29;;;;;;;1.00;0.45;;;21.00;64.90;;;;;;5113549;28;20543;-70
2022/07/09 02:02:55;;;;;;;1.13;0.40;;;21.00;64.90;;;;;;5114752;28;20105;-71
2022/07/09 02:05:21;;;;;;;1.52;0.60;;;21.00;64.90;;;;;;5113786;28;20088;-70
2022/07/09 02:07:46;;;;;;;2.40;0.50;;;21.00;64.90;;;;;;5113768;28;20039;-71
2022/07/09 02:10:13;;;;;;;1.27;0.57;;;21.00;65.00;;;;;;5115149;28;20035;-71
2022/07/09 02:12:39;;;;;;;1.35;0.50;;;21.00;65.00;;;;;;5114982;28;20051;-70
2022/07/09 02:15:06;;;;;;;2.38;0.60;;;21.00;65.00;;;;;;5113729;28;20040;-71
2022/07/09 02:17:32;;;;;;;1.00;0.50;;;21.00;65.00;;;;;;5113846;28;20040;-70
2022/07/09 02:19:58;;;;;;;1.63;0.68;;;21.00;65.00;;;;;;5113242;28;20419;-70
2022/07/09 02:22:24;;;;;;;1.83;0.40;;;21.00;65.00;;;;;;5114109;28;20039;-71
2022/07/09 02:24:49;;;;;;;1.52;0.60;;;21.00;65.00;;;;;;5114547;28;20032;-70
2022/07/09 02:27:15;;;;;;;1.92;0.70;;;20.90;65.00;;;;;;5113705;28;20034;-71
2022/07/09 02:29:41;;;;;;;1.42;0.60;;;20.90;65.00;;;;;;5113670;28;20586;-70
2022/07/09 02:32:07;;;;;;;2.38;0.60;;;20.90;65.00;;;;;;5104345;28;20533;-71
2022/07/09 02:34:33;;;;;;;2.38;0.50;;;20.90;65.00;;;;;;5092843;28;20052;-70
2022/07/09 02:36:58;;;;;;;1.30;0.65;;;20.90;65.00;;;;;;5093187;28;20055;-70
2022/07/09 02:39:24;;;;;;;1.15;0.60;;;20.90;65.00;;;;;;5092610;28;20503;-70
2022/07/09 02:41:50;;;;;;;1.17;0.50;;;20.90;65.10;;;;;;5092213;28;20399;-70
2022/07/09 02:44:16;;;;;;;1.50;0.50;;;20.90;65.10;;;;;;5093429;28;20039;-70
2022/07/09 02:46:41;;;;;;;1.45;0.70;;;20.90;65.10;;;;;;5092688;28;20036;-70
2022/07/09 02:49:07;;;;;;;1.30;0.40;;;20.90;65.10;;;;;;5092667;28;20075;-71
2022/07/09 02:51:33;;;;;;;2.35;0.77;;;20.90;65.10;;;;;;5092819;28;20092;-70
2022/07/09 02:53:58;;;;;;;1.40;0.50;;;20.90;65.10;;;;;;5092559;28;20547;-70
2022/07/09 02:56:24;;;;;;;1.92;0.50;;;20.90;65.20;;;;;;5092518;28;20047;-70
2022/07/09 02:58:49;;;;;;;1.40;0.68;;;20.90;65.20;;;;;;5093736;28;20043;-70
2022/07/09 03:01:15;;;;;;;1.00;0.47;;;20.90;65.30;;;;;;5093327;28;20499;-70
2022/07/09 03:03:41;;;;;;;2.10;0.60;;;20.90;65.20;;;;;;5091742;28;20446;-71
2022/07/09 03:06:08;;;;;;;1.50;0.80;;;20.90;65.30;;;;;;5093509;28;20165;-71
2022/07/09 03:08:34;;;;;;;1.58;0.60;;;20.90;65.30;;;;;;5092247;28;20047;-70
2022/07/09 03:11:00;;;;;;;1.83;0.57;;;20.90;65.30;;;;;;5092430;28;20040;-70
2022/07/09 03:13:25;;;;;;;0.70;0.47;;;20.90;65.30;;;;;;5075256;28;20059;-71
2022/07/09 03:15:51;;;;;;;2.08;0.60;;;20.90;65.30;;;;;;5092168;28;20040;-70
2022/07/09 03:18:17;;;;;;;1.65;0.60;;;20.90;65.30;;;;;;5092029;28;20141;-70
2022/07/09 03:20:42;;;;;;;0.93;0.50;;;20.90;65.30;;;;;;5092887;28;20052;-70
2022/07/09 03:23:08;;;;;;;1.08;0.70;;;20.90;65.30;;;;;;5092602;28;20107;-70
2022/07/09 03:25:34;;;;;;;1.67;0.70;;;20.80;65.30;;;;;;5091699;28;20055;-70
2022/07/09 03:27:59;;;;;;;2.70;0.75;;;20.90;65.30;;;;;;5091855;28;20044;-70
2022/07/09 03:30:25;;;;;;;1.15;0.60;;;20.80;65.30;;;;;;5091814;28;20046;-70
2022/07/09 03:32:51;;;;;;;1.55;0.75;;;20.80;65.30;;;;;;5108394;28;20126;-70
2022/07/09 03:35:20;;;;;;;1.45;0.52;;;20.80;65.30;;;;;;5112117;28;20051;-70
2022/07/09 03:37:45;;;;;;;2.08;0.63;;;20.80;65.30;;;;;;5112055;28;20051;-70
2022/07/09 03:40:11;;;;;;;1.20;0.70;;;20.80;65.30;;;;;;5111686;28;20063;-70
2022/07/09 03:42:37;;;;;;;1.42;0.55;;;20.80;65.30;;;;;;5111623;28;20594;-70
2022/07/09 03:45:03;;;;;;;1.27;0.40;;;20.80;65.30;;;;;;5111487;28;20071;-70
2022/07/09 03:47:28;;;;;;;1.25;0.47;;;20.80;65.30;;;;;;5111846;28;20380;-70
2022/07/09 03:49:54;;;;;;;1.15;0.40;;;20.80;65.30;;;;;;5112068;28;20035;-70
2022/07/09 03:52:20;;;;;;;2.60;0.50;;;20.90;65.30;;;;;;5111863;28;20490;-70
2022/07/09 03:54:45;;;;;;;1.63;0.60;;;20.80;65.30;;;;;;5111999;28;20166;-71
2022/07/09 03:57:11;;;;;;;2.13;0.95;;;20.80;65.30;;;;;;5111783;28;20031;-70
2022/07/09 03:59:39;;;;;;;2.88;0.60;;;20.80;65.30;;;;;;5111431;28;20047;-70
2022/07/09 04:02:05;;;;;;;0.77;0.30;;;20.80;65.30;;;;;;5111487;28;20077;-70
2022/07/09 04:04:34;;;;;;;2.20;0.68;;;20.80;65.30;;;;;;5110918;28;20039;-70
2022/07/09 04:07:00;;;;;;;2.72;0.43;;;20.80;65.30;;;;;;5112748;28;20035;-70
2022/07/09 04:09:28;;;;;;;1.48;0.90;;;20.80;65.30;;;;;;5111240;28;20039;-70
2022/07/09 04:11:54;;;;;;;1.23;0.55;;;20.80;65.30;;;;;;5111813;28;20097;-70
2022/07/09 04:14:19;;;;;;;0.85;0.50;;;20.80;65.30;;;;;;5111449;28;20445;-70
2022/07/09 04:16:46;;;;;;;2.55;0.88;;;20.80;65.30;;;;;;5111358;28;20050;-70
2022/07/09 04:19:12;;;;;;;0.82;0.50;;;20.80;65.30;;;;;;5112529;28;20170;-70
2022/07/09 04:21:38;;;;;;;1.65;0.50;;;20.80;65.30;;;;;;5110963;28;20304;-70
2022/07/09 04:24:04;;;;;;;1.65;0.47;;;20.80;65.30;;;;;;5111999;28;20028;-71
2022/07/09 04:26:30;;;;;;;3.22;0.70;;;20.80;65.30;;;;;;5111508;28;20388;-70
2022/07/09 04:28:55;;;;;;;1.20;0.40;;;20.80;65.30;;;;;;5111251;28;20050;-70
2022/07/09 04:31:21;;;;;;;1.30;0.52;;;20.80;65.30;;;;;;5108485;28;20028;-71
2022/07/09 04:33:47;;;;;;;1.48;0.80;;;20.80;65.30;;;;;;5092056;28;20051;-71
2022/07/09 04:36:13;;;;;;;2.00;0.70;;;20.80;65.40;;;;;;5090796;28;20537;-70
2022/07/09 04:38:39;;;;;;;0.88;0.30;;;20.80;65.30;;;;;;5091006;28;20044;-70
2022/07/09 04:41:05;;;;;;;2.40;0.60;;;20.80;65.30;;;;;;5090285;28;20443;-70
2022/07/09 04:43:31;;;;;;;2.17;0.52;;;20.80;65.30;;;;;;5090276;28;20044;-70
2022/07/09 04:46:00;;;;;;;1.30;0.88;;;20.80;65.30;;;;;;5090598;28;20123;-70
2022/07/09 04:48:26;;;;;;;1.17;0.30;;;20.80;65.40;;;;;;5090656;28;20549;-70
2022/07/09 04:50:52;;;;;;;2.17;0.50;;;20.80;65.40;;;;;;5090968;28;20093;-70
2022/07/09 04:53:17;;;;;;;2.65;1.10;;;20.80;65.40;;;;;;5091866;28;20224;-71
2022/07/09 04:55:43;;;;;;;2.33;0.50;;;20.80;65.40;;;;;;5090799;28;20044;-71
2022/07/09 04:58:09;;;;;;;1.58;0.50;;;20.80;65.30;;;;;;5090502;28;20122;-70
2022/07/09 05:00:35;;;;;;;2.53;0.57;;;20.80;65.40;;;;;;5090452;28;20040;-70
2022/07/09 05:03:01;;;;;;;1.17;0.43;;;20.80;65.40;;;;;;5090143;28;20392;-70
2022/07/09 05:05:27;;;;;;;0.88;0.38;;;20.80;65.30;;;;;;5091256;28;20119;-70
2022/07/09 05:07:53;;;;;;;1.48;0.75;;;20.80;65.40;;;;;;5090369;28;20462;-70
2022/07/09 05:10:19;;;;;;;1.52;0.50;;;20.80;65.40;;;;;;5090421;28;20044;-70
2022/07/09 05:12:46;;;;;;;1.60;0.50;;;20.80;65.30;;;;;;5090408;28;20048;-70
2022/07/09 05:15:14;;;;;;;2.20;0.65;;;20.80;65.30;;;;;;5090402;28;20040;-70
2022/07/09 05:17:41;;;;;;;1.92;0.50;;;20.80;65.30;;;;;;5091622;28;20086;-70
2022/07/09 05:20:09;;;;;;;1.70;0.75;;;20.80;65.30;;;;;;5090478;28;20403;-70
2022/07/09 05:22:36;;;;;;;1.15;0.57;;;20.80;65.30;;;;;;5092143;28;20097;-70
2022/07/09 05:25:03;;;;;;;1.25;0.63;;;20.80;65.30;;;;;;5095330;28;20048;-71
2022/07/09 05:27:28;;;;;;;0.93;0.30;;;20.80;65.30;;;;;;5094130;28;20043;-70
2022/07/09 05:29:57;;;;;;;1.70;0.47;;;20.80;65.30;;;;;;5094467;28;20044;-71
2022/07/09 05:32:23;;;;;;;2.67;0.50;;;20.80;65.30;;;;;;5106409;28;20529;-71
2022/07/09 05:34:48;;;;;;;3.15;0.40;;;20.80;65.30;;;;;;5115711;28;20075;-70
2022/07/09 05:37:14;;;;;;;1.15;0.40;;;20.80;65.30;;;;;;5114625;28;20035;-70
2022/07/09 05:39:40;;;;;;;1.45;0.32;;;20.80;65.30;;;;;;5114302;28;20907;-70
2022/07/09 05:42:06;;;;;;;2.00;0.65;;;20.80;65.30;;;;;;5115255;28;20044;-70
2022/07/09 05:44:32;;;;;;;1.27;0.40;;;20.80;65.30;;;;;;5113409;28;20039;-70
2022/07/09 05:46:58;;;;;;;1.77;0.60;;;20.80;65.30;;;;;;5114251;28;20070;-71
2022/07/09 05:49:25;;;;;;;0.95;0.60;;;20.80;65.30;;;;;;5114488;28;20087;-74
2022/07/09 05:51:51;;;;;;;1.02;0.50;;;20.80;65.30;;;;;;5114381;28;20399;-70
2022/07/09 05:54:16;;;;;;;1.50;0.73;;;20.80;65.30;;;;;;5115345;28;20035;-71
2022/07/09 05:56:42;;;;;;;1.23;0.57;;;20.80;65.30;;;;;;5113987;28;20453;-70
2022/07/09 05:59:08;;;;;;;0.68;0.50;;;20.80;65.30;;;;;;5114137;28;20047;-70
2022/07/09 06:01:39;;;;;;;1.77;0.55;;;20.80;65.20;;;;;;5113841;28;20035;-70
2022/07/09 06:04:05;;;;;;;0.70;0.40;;;20.90;65.30;;;;;;5113471;28;20046;-70
2022/07/09 06:06:31;;;;;;;1.27;0.40;;;20.90;65.30;;;;;;5113572;28;20115;-71
2022/07/09 06:09:00;;;;;;;2.53;0.60;;;20.90;65.30;;;;;;5113955;28;20130;-70
2022/07/09 06:11:26;;;;;;;0.90;0.40;;;20.90;65.20;;;;;;5113802;28;20039;-70
2022/07/09 06:13:52;;;;;;;0.98;0.40;;;20.90;65.20;;;;;;5113917;28;20043;-70
2022/07/09 06:16:18;;;;;;;1.65;0.43;;;20.90;65.90;;;;;;5115010;28;20395;-70
2022/07/09 06:18:43;;;;;;;1.50;0.50;;;20.90;65.10;;;;;;5113801;28;20032;-70
2022/07/09 06:21:09;;;;;;;1.05;0.30;;;21.00;65.10;;;;;;5113882;27;20062;-69
2022/07/09 06:23:35;;;;;;;4.22;0.38;;;21.00;65.10;;;;;;5125625;27;20149;-69
2022/07/09 06:26:00;;;;;;;0.75;0.20;;;21.00;65.30;;;;;;5128505;27;20031;-69
2022/07/09 06:28:26;;;;;;;1.38;0.57;;;21.00;65.30;;;;;;5118391;27;20494;-69
2022/07/09 06:30:52;;;;;;;0.60;0.20;;;21.00;65.40;;;;;;5107651;28;20105;-69
2022/07/09 06:33:20;;;;;;;0.77;0.30;;;21.10;65.60;;;;;;5112028;28;20092;-68
2022/07/09 06:35:46;;;;;;;0.40;0.20;;;21.10;65.50;;;;;;5112069;28;20074;-68
2022/07/09 06:38:14;;;;;;;1.05;0.22;;;21.10;65.50;;;;;;5112906;28;20066;-71
2022/07/09 06:40:40;;;;;;;0.93;0.30;;;21.10;65.50;;;;;;5103560;28;20044;-71
2022/07/09 06:43:05;;;;;;;1.42;0.20;;;21.20;65.70;;;;;;5091711;28;20050;-71
2022/07/09 06:45:31;;;;;;;2.08;0.20;;;21.30;65.80;;;;;;5091531;28;20122;-71
2022/07/09 06:47:56;;;;;;;1.52;0.32;;;21.30;65.80;;;;;;5093158;28;20091;-72
2022/07/09 06:50:22;;;;;;;1.20;0.20;;;21.30;65.70;;;;;;5092175;28;20097;-70
2022/07/09 06:52:48;;;;;;;0.60;0.20;;;21.30;65.70;;;;;;5091483;28;20467;-70
2022/07/09 06:55:13;;;;;;;1.05;0.20;;;21.40;65.70;;;;;;5118577;27;20126;-73
2022/07/09 06:57:39;;;;;;;0.95;0.20;;;21.40;65.50;;;;;;5132638;27;20054;-74
2022/07/09 07:00:06;;;;;;;0.70;0.30;;;21.40;65.50;;;;;;5132303;27;20039;-73
2022/07/09 07:02:34;;;;;;;0.60;0.20;;;21.40;65.40;;;;;;5133492;27;20064;-73
2022/07/09 07:05:00;;;;;;;0.22;0.10;;;21.50;65.20;;;;;;5133031;27;20043;-74
2022/07/09 07:07:26;;;;;;;1.60;0.20;;;21.40;65.00;;;;;;5133646;27;20487;-73
2022/07/09 07:09:52;;;;;;;0.30;0.10;;;21.40;64.90;;;;;;5128670;27;20045;-72
2022/07/09 07:12:17;;;;;;;0.77;0.20;;;21.50;64.80;;;;;;5131889;27;20042;-73
2022/07/09 07:14:43;;;;;;;0.60;0.32;;;21.50;64.90;;;;;;5125580;27;20043;-76
2022/07/09 07:17:09;;;;;;;0.95;0.20;;;21.50;65.00;;;;;;5131791;27;20391;-72
2022/07/09 07:19:35;;;;;;;0.88;0.20;;;21.50;64.90;;;;;;5122029;27;20548;-69
2022/07/09 07:22:00;;;;;;;1.13;0.30;;;21.60;65.00;;;;;;5125044;27;20050;-73
2022/07/09 07:24:26;;;;;;;1.73;0.20;;;21.60;65.00;;;;;;5131880;27;20031;-73
2022/07/09 07:26:56;;;;;;;0.32;0.20;;;21.60;64.90;;;;;;5131400;27;20039;-73
2022/07/09 07:29:22;;;;;;;3.45;0.20;;;21.70;64.80;;;;;;5126749;27;20387;-68
2022/07/09 07:31:49;;;;;;;1.98;0.25;;;21.70;64.90;;;;;;5118925;27;20112;-72
2022/07/09 07:34:15;;;;;;;0.47;0.20;;;21.70;64.90;;;;;;5114905;27;20122;-71
2022/07/09 07:36:41;;;;;;;2.45;0.73;;;21.70;64.80;;;;;;5110496;28;20096;-73
2022/07/09 07:39:07;;;;;;;1.65;0.30;;;21.80;64.80;;;;;;5113051;27;20062;-73
2022/07/09 07:41:33;;;;;;;1.75;0.20;;;21.80;64.70;;;;;;5113318;27;20047;-70
2022/07/09 07:43:58;;;;;;;1.88;0.30;;;21.80;64.60;;;;;;5122995;27;20122;-71
2022/07/09 07:46:24;;;;;;;0.43;0.20;;;21.80;64.60;;;;;;5133301;27;20092;-71
2022/07/09 07:48:50;;;;;;;0.47;0.20;;;21.80;64.50;;;;;;5130739;27;20030;-72
2022/07/09 07:51:16;;;;;;;1.50;0.35;;;21.80;64.30;;;;;;5124418;27;20398;-71
2022/07/09 07:53:42;;;;;;;1.70;0.20;;;21.80;64.20;;;;;;5132268;27;20444;-71
2022/07/09 07:56:08;;;;;;;1.52;0.25;;;21.80;64.20;;;;;;5118935;27;20035;-72
2022/07/09 07:58:35;;;;;;;2.63;0.30;;;21.80;64.10;;;;;;5124204;27;20047;-71
2022/07/09 08:01:00;;;;;;;1.50;0.30;;;21.80;64.10;;;;;;5136820;27;20039;-73
2022/07/09 08:03:26;;;;;;;0.82;0.30;;;21.80;64.30;;;;;;5124898;27;20038;-72
2022/07/09 08:05:52;;;;;;;0.73;0.40;;;21.90;64.40;;;;;;5144414;27;20253;-72
2022/07/09 08:08:18;;;;;;;0.85;0.20;;;21.80;64.30;;;;;;5134101;27;20561;-72
2022/07/09 08:10:45;;;;;;;0.50;0.20;;;21.80;64.30;;;;;;5133891;27;20505;-72
2022/07/09 08:13:13;;;;;;;0.93;0.30;;;21.80;64.30;;;;;;5149454;27;20031;-71
2022/07/09 08:15:39;;;;;;;1.75;0.20;;;21.90;64.30;;;;;;5142147;27;20386;-72
2022/07/09 08:18:06;;;;;;;1.30;0.32;;;21.90;64.20;;;;;;5115586;27;20075;-72
2022/07/09 08:20:32;;;;;;;1.27;0.20;;;21.90;64.00;;;;;;5127152;27;20179;-71
2022/07/09 08:22:58;;;;;;;4.30;0.30;;;21.90;63.80;;;;;;5133447;27;20677;-71
2022/07/09 08:25:24;;;;;;;3.92;0.28;;;21.90;63.70;;;;;;5133679;27;20043;-72
2022/07/09 08:27:49;;;;;;;1.58;0.40;;;21.90;63.70;;;;;;5133228;27;20072;-71
2022/07/09 08:30:15;;;;;;;2.85;0.30;;;21.90;63.50;;;;;;5132213;27;20054;-71
2022/07/09 08:32:41;;;;;;;2.83;0.30;;;21.90;63.50;;;;;;5113928;27;20076;-70
2022/07/09 08:35:07;;;;;;;1.67;0.20;;;21.90;63.40;;;;;;5116598;27;20467;-69
2022/07/09 08:37:33;;;;;;;1.05;0.28;;;21.90;63.60;;;;;;5150652;27;20429;-70
2022/07/09 08:40:03;;;;;;;2.47;0.30;;;21.90;63.70;;;;;;5129854;27;20104;-71
2022/07/09 08:42:28;;;;;;;;;;;21.90;63.60;;;;;;5117639;28;20487;-71
2022/07/09 08:44:55;;;;;;;2.67;0.50;;;22.00;63.80;;;;;;5112864;28;19922;-71
2022/07/09 08:47:22;;;;;;;3.70;0.28;;;22.00;63.60;;;;;;5131490;27;20039;-74
2022/07/09 08:49:49;;;;;;;0.90;0.30;;;22.10;63.40;;;;;;5151640;27;20442;-70
2022/07/09 08:52:16;;;;;;;0.77;0.20;;;22.10;63.40;;;;;;5117813;27;20053;-71
2022/07/09 08:54:44;;;;;;;1.95;0.30;;;22.20;63.20;;;;;;5125877;27;20038;-75
2022/07/09 08:57:09;;;;;;;3.33;0.20;;;22.30;63.20;;;;;;5134057;27;20043;-71
2022/07/09 08:59:35;;;;;;;1.70;0.20;;;22.20;62.90;;;;;;5137899;27;20046;-69
2022/07/09 09:02:09;;;;;;;2.83;0.20;;;22.30;62.80;;;;;;5132000;27;20083;-70
2022/07/09 09:04:39;;;;;;;3.55;0.30;;;22.30;62.70;;;;;;5131139;27;20039;-70
2022/07/09 09:09:54;;;;;;;2.90;0.65;;;22.60;62.10;;;;;;5127116;27;20403;-70
2022/07/09 09:12:27;;;;;;;6.30;0.40;;;22.60;61.90;;;;;;5126673;28;20084;-70
2022/07/09 09:14:53;;;;;;;2.67;0.22;;;22.60;61.80;;;;;;5127301;28;20425;-70
2022/07/09 09:17:18;;;;;;;1.48;0.20;;;22.60;61.80;;;;;;5127198;28;20077;-70
2022/07/09 09:19:44;;;;;;;2.10;0.20;;;22.60;61.70;;;;;;5127220;28;20461;-70
2022/07/09 09:22:10;;;;;;;0.88;0.32;;;22.70;61.70;;;;;;5127509;28;20200;-70
2022/07/09 09:24:35;;;;;;;1.38;0.43;;;22.80;61.40;;;;;;5127115;27;20398;-70
2022/07/09 09:27:02;;;;;;;2.20;0.20;;;22.80;61.20;;;;;;5127426;28;20099;-70
2022/07/09 09:29:28;;;;;;;4.63;0.20;;;22.80;61.00;;;;;;5127210;28;20221;-70
2022/07/09 09:31:55;;;;;;;1.40;0.20;;;22.80;60.80;;;;;;5111407;28;20092;-70
2022/07/09 09:34:21;;;;;;;2.40;0.15;;;22.80;60.80;;;;;;5128675;28;20076;-70
2022/07/09 09:36:50;;;;;;;3.58;0.20;;;22.80;60.80;;;;;;5129475;28;20039;-70
2022/07/09 09:42:06;;;;;;;1.10;0.20;;;22.80;60.80;;;;;;5151743;27;20565;-70
2022/07/09 09:44:37;;;;;;;2.05;0.17;;;22.60;60.80;;;;;;5128568;28;20049;-70
2022/07/09 09:47:04;;;;;;;1.38;0.20;;;22.70;60.90;;;;;;5128392;28;20092;-70
2022/07/09 09:49:32;;;;;;;0.52;0.20;;;22.60;60.90;;;;;;5129072;28;20043;-70
2022/07/09 09:54:47;;;;;;;1.50;0.30;;;22.60;60.90;;;;;;5130194;27;20324;-70
2022/07/09 09:57:13;;;;;;;1.13;0.17;;;22.60;61.00;;;;;;5128749;27;20039;-70
2022/07/09 09:59:45;;;;;;;2.25;0.20;;;22.60;60.80;;;;;;5128810;27;20092;-70
2022/07/09 10:02:12;;;;;;;2.38;0.20;;;22.60;60.80;;;;;;5129086;27;20047;-70
2022/07/09 10:04:39;;;;;;;0.52;0.30;;;22.60;60.80;;;;;;5128728;28;20428;-70
2022/07/09 10:07:06;;;;;;;1.02;0.20;;;22.50;60.70;;;;;;5128403;28;20042;-70
2022/07/09 10:09:32;;;;;;;0.50;0.20;;;22.50;60.60;;;;;;5129016;28;20039;-70
2022/07/09 10:12:01;;;;;;;0.90;0.20;;;22.60;60.60;;;;;;5129096;28;20043;-70
2022/07/09 10:17:11;;;;;;;0.70;0.20;;;22.60;60.60;;;;;;5129985;27;20383;-70
2022/07/09 10:19:37;;;;;;;0.77;0.35;;;22.50;60.50;;;;;;5128923;28;20130;-70
2022/07/09 10:22:03;;;;;;;1.65;0.20;;;22.50;60.50;;;;;;5128731;28;20490;-70
2022/07/09 10:24:31;;;;;;;1.67;0.20;;;22.50;60.40;;;;;;5128422;28;20031;-70
2022/07/09 10:27:13;;;;;;;1.00;0.30;;;22.50;60.40;;;;;;5128263;27;20043;-70
2022/07/09 10:32:32;;;;;;;1.02;0.55;;;22.50;60.40;;;;;;5154240;27;1174807;-70
2022/07/09 10:35:02;;;;;;;0.55;0.15;;;22.50;60.30;;;;;;5153232;27;20645;-70
2022/07/09 10:40:12;;;;;;;0.52;0.20;;;22.50;60.30;;;;;;5130297;27;20410;-70
2022/07/09 10:42:39;;;;;;;0.77;0.17;;;22.40;60.20;;;;;;5129178;28;20047;-70
2022/07/09 10:45:22;;;;;;;0.52;0.20;;;22.40;60.20;;;;;;5128512;28;20047;-70
2022/07/09 10:47:53;;;;;;;0.57;0.20;;;22.40;60.10;;;;;;5128488;28;20075;-70
2022/07/09 10:50:18;;;;;;;2.60;0.40;;;22.40;60.10;;;;;;5130541;27;20062;-70
2022/07/09 10:52:45;;;;;;;0.88;0.22;;;22.40;60.10;;;;;;5128631;28;20476;-70
2022/07/09 10:55:11;;;;;;;0.50;0.10;;;22.40;60.00;;;;;;5130050;28;20027;-70
2022/07/09 10:57:37;;;;;;;1.17;0.13;;;22.40;59.90;;;;;;5130066;28;20525;-70
2022/07/09 11:00:03;;;;;;;0.50;0.20;;;22.40;59.90;;;;;;5128566;28;20406;-70
2022/07/09 11:02:29;;;;;;;1.35;0.20;;;22.40;59.90;;;;;;5128313;28;20027;-70
2022/07/09 11:04:54;;;;;;;1.17;0.20;;;22.40;59.90;;;;;;5145234;27;20037;-70
2022/07/09 11:07:23;;;;;;;0.60;0.20;;;22.40;59.90;;;;;;5144496;27;20039;-70
2022/07/09 11:09:49;;;;;;;2.17;0.20;;;22.40;59.90;;;;;;5128503;28;20058;-70
2022/07/09 11:12:19;;;;;;;1.85;0.20;;;22.30;59.80;;;;;;5128384;28;20050;-70
2022/07/09 11:14:46;;;;;;;1.90;0.20;;;22.30;59.70;;;;;;5129548;27;20111;-70
2022/07/09 11:17:18;;;;;;;0.65;0.20;;;22.40;59.80;;;;;;5128259;28;20075;-70
2022/07/09 11:19:45;;;;;;;0.35;0.10;;;22.40;59.80;;;;;;5128255;28;20046;-70
2022/07/09 11:22:11;;;;;;;0.95;0.20;;;22.30;59.70;;;;;;5129070;27;20027;-70
2022/07/09 11:24:37;;;;;;;0.43;0.10;;;22.30;59.70;;;;;;5126973;28;20539;-70
2022/07/09 11:27:04;;;;;;;0.90;0.10;;;22.30;59.80;;;;;;5127472;28;20051;-71
2022/07/09 11:29:30;;;;;;;0.70;0.20;;;22.30;59.70;;;;;;5128191;28;20510;-70
2022/07/09 11:31:56;;;;;;;0.60;0.20;;;22.30;59.70;;;;;;5128239;28;20051;-71
2022/07/09 11:34:21;;;;;;;1.27;0.20;;;22.30;59.70;;;;;;5127862;28;20040;-70
2022/07/09 11:36:52;;;;;;;0.93;0.20;;;22.30;59.70;;;;;;5128988;27;20119;-70
2022/07/09 11:39:26;;;;;;;1.08;0.20;;;22.30;59.70;;;;;;5128840;27;20052;-70
2022/07/09 11:41:53;;;;;;;0.60;0.20;;;22.30;59.60;;;;;;5128076;28;20051;-70
2022/07/09 11:44:25;;;;;;;0.52;0.20;;;22.30;59.60;;;;;;5127543;28;20050;-71
2022/07/09 11:49:46;;;;;;;0.95;0.22;;;22.30;59.70;;;;;;5130209;27;20898;-70
2022/07/09 11:52:27;;;;;;;0.30;0.10;;;22.30;59.50;;;;;;5129217;28;20043;-70
2022/07/09 11:54:56;;;;;;;1.38;0.35;;;22.30;59.50;;;;;;5129095;28;20390;-70
2022/07/09 11:57:22;;;;;;;0.82;0.15;;;22.30;59.60;;;;;;5128734;28;20089;-70
2022/07/09 11:59:48;;;;;;;0.70;0.10;;;22.30;59.60;;;;;;5128730;28;20039;-70
2022/07/09 12:02:36;;;;;;;0.88;0.20;;;22.30;59.60;;;;;;5128850;28;20042;-71
2022/07/09 12:05:04;;;;;;;1.95;0.20;;;22.30;59.70;;;;;;5128482;28;20046;-71
2022/07/09 12:07:30;;;;;;;1.38;0.30;;;22.30;59.80;;;;;;5128217;28;20036;-70
2022/07/09 12:09:59;;;;;;;1.85;0.10;;;22.20;59.70;;;;;;5128781;28;20047;-71
2022/07/09 12:12:25;;;;;;;2.28;0.20;;;22.20;59.70;;;;;;5128870;28;20081;-70
2022/07/09 12:14:50;;;;;;;1.42;0.20;;;22.30;59.80;;;;;;5128506;28;20103;-70
2022/07/09 12:17:19;;;;;;;1.63;0.30;;;22.30;59.80;;;;;;5128538;28;20036;-70
2022/07/09 12:19:45;;;;;;;2.85;0.20;;;22.30;59.80;;;;;;5128514;28;20071;-70
2022/07/09 12:22:11;;;;;;;1.38;0.30;;;22.30;59.80;;;;;;5129569;28;20078;-70
2022/07/09 12:24:37;;;;;;;1.45;0.20;;;22.30;59.90;;;;;;5128307;28;20428;-70
2022/07/09 12:27:03;;;;;;;2.08;0.30;;;22.20;59.90;;;;;;5127973;28;20062;-70
2022/07/09 12:29:28;;;;;;;0.73;0.20;;;22.30;59.90;;;;;;5128093;28;20035;-70
2022/07/09 12:31:54;;;;;;;1.80;0.30;;;22.30;59.80;;;;;;5128205;28;20311;-71
2022/07/09 12:34:23;;;;;;;1.45;0.30;;;22.30;59.80;;;;;;5129472;28;20036;-70
2022/07/09 12:36:49;;;;;;;0.85;0.13;;;22.30;59.80;;;;;;5128010;28;20398;-70
2022/07/09 12:39:15;;;;;;;1.38;0.30;;;22.30;59.80;;;;;;5128210;28;20043;-70
2022/07/09 12:41:40;;;;;;;2.58;0.50;;;22.30;59.80;;;;;;5128216;28;20073;-70
2022/07/09 12:44:06;;;;;;;1.38;0.20;;;22.30;59.80;;;;;;5128185;28;20368;-70
2022/07/09 12:46:31;;;;;;;1.60;0.20;;;22.30;59.80;;;;;;5128962;28;20039;-70
2022/07/09 12:48:57;;;;;;;2.47;0.20;;;22.30;59.80;;;;;;5127088;28;20418;-71
2022/07/09 12:51:23;;;;;;;2.10;0.40;;;22.30;59.70;;;;;;5127997;28;20047;-71
2022/07/09 12:53:48;;;;;;;1.25;0.20;;;22.30;59.70;;;;;;5127827;28;20459;-71
2022/07/09 12:56:14;;;;;;;1.85;0.20;;;22.30;59.70;;;;;;5127519;28;20054;-70
2022/07/09 12:58:40;;;;;;;1.95;0.30;;;22.30;59.70;;;;;;5128775;28;20047;-70
2022/07/09 13:01:06;;;;;;;1.75;0.28;;;22.30;59.70;;;;;;5113792;28;20505;-71
2022/07/09 13:03:31;;;;;;;2.53;0.20;;;22.30;59.60;;;;;;5114074;28;20052;-70